createdAt,value
2018-07-09T00:03:11.241Z,5.47
2018-07-09T00:07:14.024Z,5.20
2018-07-09T00:11:16.950Z,4.63
2018-07-09T00:15:19.833Z,2.97
2018-07-09T00:19:22.773Z,3.47
2018-07-09T00:23:25.736Z,8.07
2018-07-09T00:27:28.635Z,7.93
2018-07-09T00:31:31.668Z,5.90
2018-07-09T00:35:34.638Z,8.83
2018-07-09T00:39:37.541Z,6.53
2018-07-09T00:43:40.398Z,5.00
2018-07-09T00:47:43.342Z,7.10
2018-07-09T00:51:46.752Z,8.80
2018-07-09T00:55:49.667Z,6.37
2018-07-09T00:59:52.730Z,4.53
2018-07-09T01:03:55.522Z,4.10
2018-07-09T01:07:58.401Z,4.67
2018-07-09T01:12:08.794Z,4.70
2018-07-09T01:16:11.968Z,4.97
2018-07-09T01:20:14.902Z,6.07
2018-07-09T01:24:17.773Z,5.63
2018-07-09T01:28:20.727Z,6.53
2018-07-09T01:32:23.558Z,3.50
2018-07-09T01:36:26.431Z,3.93
2018-07-09T01:40:29.219Z,3.70
2018-07-09T01:44:32.130Z,6.43
2018-07-09T01:48:35.004Z,9.03
2018-07-09T01:52:37.841Z,4.40
2018-07-09T01:56:40.656Z,9.67
2018-07-09T02:00:43.538Z,4.77
2018-07-09T02:04:46.357Z,5.07
2018-07-09T02:08:49.244Z,8.50
2018-07-09T02:12:52.137Z,7.43
2018-07-09T02:16:54.981Z,6.43
2018-07-09T02:20:57.838Z,8.40
2018-07-09T02:25:00.669Z,7.80
2018-07-09T02:29:03.471Z,6.67
2018-07-09T02:33:06.359Z,6.03
2018-07-09T02:37:09.203Z,5.27
2018-07-09T02:41:12.033Z,7.23
2018-07-09T02:45:15.140Z,6.23
2018-07-09T02:49:18.240Z,4.33
2018-07-09T02:53:21.083Z,7.73
2018-07-09T02:57:23.941Z,6.83
2018-07-09T03:01:26.833Z,6.83
2018-07-09T03:05:29.712Z,9.63
2018-07-09T03:09:32.826Z,10.47
2018-07-09T03:13:35.762Z,8.60
2018-07-09T03:17:38.607Z,9.43
2018-07-09T03:21:48.583Z,12.60
2018-07-09T03:25:53.600Z,8.17
2018-07-09T03:29:56.435Z,8.00
2018-07-09T03:33:59.309Z,9.27
2018-07-09T03:38:02.135Z,6.77
2018-07-09T03:42:05.034Z,6.03
2018-07-09T03:46:07.935Z,6.60
2018-07-09T03:50:10.774Z,7.80
2018-07-09T03:54:13.718Z,10.20
2018-07-09T03:58:16.564Z,6.63
2018-07-09T04:02:19.329Z,9.37
2018-07-09T04:06:22.243Z,8.77
2018-07-09T04:10:25.090Z,10.77
2018-07-09T04:14:27.891Z,10.13
2018-07-09T04:18:30.708Z,10.63
2018-07-09T04:22:33.573Z,8.10
2018-07-09T04:26:36.358Z,7.23
2018-07-09T04:30:39.162Z,6.57
2018-07-09T04:34:41.989Z,13.13
2018-07-09T04:38:44.788Z,12.90
2018-07-09T04:42:47.631Z,12.73
2018-07-09T04:46:50.486Z,10.33
2018-07-09T04:50:53.353Z,13.53
2018-07-09T04:54:56.170Z,11.20
2018-07-09T04:58:58.987Z,12.87
2018-07-09T05:03:01.876Z,14.77
2018-07-09T05:07:04.841Z,23.23
2018-07-09T05:11:07.716Z,14.23
2018-07-09T05:15:10.508Z,12.00
2018-07-09T05:19:13.307Z,18.10
2018-07-09T05:23:16.145Z,19.60
2018-07-09T05:27:18.916Z,11.13
2018-07-09T05:31:21.777Z,15.17
2018-07-09T05:35:24.683Z,14.20
2018-07-09T05:39:27.728Z,18.80
2018-07-09T05:43:31.180Z,13.20
2018-07-09T05:47:34.969Z,17.83
2018-07-09T05:51:37.886Z,13.63
2018-07-09T05:55:40.687Z,15.03
2018-07-09T05:59:43.937Z,13.83
2018-07-09T06:03:46.879Z,13.03
2018-07-09T06:07:49.806Z,14.60
2018-07-09T06:11:52.690Z,15.33
2018-07-09T06:15:55.572Z,16.50
2018-07-09T06:19:58.415Z,18.27
2018-07-09T06:24:01.659Z,16.43
2018-07-09T06:28:04.587Z,13.43
2018-07-09T06:32:08.020Z,13.20
2018-07-09T06:36:10.788Z,14.40
2018-07-09T06:40:13.708Z,14.73
2018-07-09T06:44:16.642Z,14.80
2018-07-09T06:48:19.596Z,10.37
2018-07-09T06:52:22.504Z,13.33
2018-07-09T06:56:25.541Z,16.87
2018-07-09T07:00:28.380Z,15.13
2018-07-09T07:04:31.220Z,15.50
2018-07-09T07:08:34.195Z,15.73
2018-07-09T07:12:37.058Z,18.77
2018-07-09T07:16:39.960Z,15.07
2018-07-09T07:20:42.876Z,16.90
2018-07-09T07:24:45.744Z,16.80
2018-07-09T07:28:48.667Z,11.20
2018-07-09T07:32:51.676Z,14.80
2018-07-09T07:36:54.564Z,10.60
2018-07-09T07:40:57.425Z,14.00
2018-07-09T07:45:01.066Z,10.63
2018-07-09T07:49:03.958Z,12.60
2018-07-09T07:53:06.796Z,12.20
2018-07-09T07:57:10.144Z,13.20
2018-07-09T08:01:12.974Z,10.20
2018-07-09T08:05:15.933Z,12.60
2018-07-09T08:09:19.095Z,13.73
2018-07-09T08:13:29.350Z,13.80
2018-07-09T08:17:25.140Z,9.27
